Time;durP1;ratioP1;P1;durP2;ratioP2;P2;SDS_P1;SDS_P2;PMS_P1;PMS_P2;Temp;Humidity;BMP_temperature;BMP_pressure;BME280_temperature;BME280_humidity;BME280_pressure;Samples;Min_cycle;Max_cycle;Signal;HPM_P1;HPM_P2
2021/04/15 00:01:14;;;;;;;9.47;6.20;;;0.80;99.90;;;1.59;100.00;99217.00;5046539;28;20511;-81
2021/04/15 00:03:42;;;;;;;9.00;6.70;;;0.70;99.90;;;1.63;100.00;99218.47;5051259;28;20827;-81
2021/04/15 00:06:14;;;;;;;7.93;6.30;;;0.70;99.90;;;1.63;100.00;99216.72;5048769;28;20570;-81
2021/04/15 00:08:45;;;;;;;8.03;6.27;;;0.70;99.90;;;1.60;100.00;99214.31;5051967;28;20566;-81
2021/04/15 00:11:15;;;;;;;15.87;7.20;;;0.60;99.90;;;1.61;100.00;99207.41;5050707;28;21023;-81
2021/04/15 00:13:48;;;;;;;11.57;6.90;;;0.80;99.90;;;1.57;100.00;99213.69;5040371;28;20816;-81
2021/04/15 00:16:18;;;;;;;9.07;6.50;;;0.70;99.90;;;1.57;100.00;99209.34;5045620;28;20531;-81
2021/04/15 00:18:47;;;;;;;10.60;7.03;;;0.70;99.90;;;1.35;100.00;99207.41;5049928;28;20563;-80
2021/04/15 00:21:17;;;;;;;9.40;6.87;;;0.40;99.90;;;1.37;100.00;99204.69;5050082;28;20450;-81
2021/04/15 00:23:46;;;;;;;15.47;6.87;;;0.40;99.90;;;1.38;100.00;99206.38;5049360;28;20460;-81
2021/04/15 00:26:16;;;;;;;11.57;7.20;;;0.50;99.90;;;1.50;100.00;99205.53;5052725;28;20902;-81
2021/04/15 00:28:44;;;;;;;7.83;6.80;;;0.60;99.90;;;1.49;100.00;99204.72;5052176;28;20527;-81
2021/04/15 00:31:12;;;;;;;9.00;6.80;;;0.60;99.90;;;1.57;100.00;99195.66;5047878;28;20469;-81
2021/04/15 00:33:40;;;;;;;9.30;6.60;;;0.70;99.90;;;1.43;100.00;99199.13;5046653;28;20481;-81
2021/04/15 00:36:08;;;;;;;9.10;6.50;;;0.60;99.90;;;1.35;100.00;99196.25;5050374;28;20810;-81
2021/04/15 00:38:36;;;;;;;10.47;7.10;;;0.40;99.90;;;1.34;100.00;99195.44;5052619;28;20861;-80
2021/04/15 00:41:07;;;;;;;9.30;6.97;;;0.40;99.90;;;1.32;100.00;99186.16;5044540;28;20496;-81
2021/04/15 00:43:39;;;;;;;9.80;6.50;;;0.30;99.90;;;1.33;100.00;99188.63;5044645;28;20458;-81
2021/04/15 00:46:45;;;;;;;9.30;6.43;;;0.40;99.90;;;1.23;100.00;99190.16;5052676;28;20501;-81
2021/04/15 00:49:19;;;;;;;8.37;5.90;;;0.30;99.90;;;1.25;100.00;99188.28;5043843;28;20441;-80
2021/04/15 00:51:52;;;;;;;9.30;6.87;;;0.30;99.90;;;1.32;100.00;99186.16;5040599;28;20452;-81
2021/04/15 00:54:35;;;;;;;9.10;6.60;;;0.40;99.90;;;1.25;100.00;99180.56;5048737;28;20513;-82
2021/04/15 00:57:11;;;;;;;11.27;6.30;;;0.30;99.90;;;1.28;100.00;99189.84;5053744;28;20464;-80
2021/04/15 00:59:40;;;;;;;11.80;7.90;;;0.30;99.90;;;1.19;100.00;99183.53;5047199;28;20850;-81
2021/04/15 01:02:13;;;;;;;11.73;7.43;;;0.20;99.90;;;1.16;100.00;99186.31;5052967;28;20949;-81
2021/04/15 01:04:41;;;;;;;8.83;6.43;;;0.20;99.90;;;0.98;100.00;99187.50;5047696;28;20542;-81
2021/04/15 01:07:09;;;;;;;10.57;7.03;;;0.00;99.90;;;1.17;100.00;99182.00;5048436;28;20460;-81
2021/04/15 01:09:36;;;;;;;7.80;6.47;;;0.30;99.90;;;1.18;100.00;99183.66;5039557;28;20840;-81
2021/04/15 01:12:54;;;;;;;7.37;6.57;;;0.40;99.90;;;1.24;100.00;99184.09;5047951;28;20873;-80
2021/04/15 01:15:43;;;;;;;9.87;6.40;;;0.40;99.90;;;1.18;100.00;99186.25;5046263;28;20514;-81
2021/04/15 01:18:21;;;;;;;7.93;6.30;;;0.40;99.90;;;1.16;100.00;99185.50;5051512;28;20514;-80
2021/04/15 01:21:29;;;;;;;10.37;7.00;;;0.30;99.90;;;1.20;100.00;99176.66;5048870;28;20515;-81
2021/04/15 01:24:07;;;;;;;8.77;6.23;;;0.30;99.90;;;1.22;100.00;99170.47;5045811;28;20457;-81
2021/04/15 01:27:25;;;;;;;11.83;6.77;;;0.40;99.90;;;1.19;100.00;99175.81;5051005;28;20856;-81
2021/04/15 01:30:07;;;;;;;7.70;6.07;;;0.40;99.90;;;1.26;100.00;99179.66;5049465;28;20816;-80
2021/04/15 01:32:47;;;;;;;9.83;6.50;;;0.40;99.90;;;1.20;100.00;99181.81;5046530;28;20898;-81
2021/04/15 01:35:23;;;;;;;9.00;7.17;;;0.30;99.90;;;1.14;100.00;99183.03;5048226;28;20468;-80
2021/04/15 01:38:02;;;;;;;8.20;6.23;;;0.30;99.90;;;1.12;100.00;99181.47;5051397;28;20895;-81
2021/04/15 01:40:37;;;;;;;8.67;6.20;;;0.30;99.90;;;0.97;100.00;99178.16;5050734;28;20607;-81
2021/04/15 01:43:16;;;;;;;10.33;6.70;;;0.10;99.90;;;1.04;100.00;99178.59;5044160;28;20482;-81
2021/04/15 01:45:48;;;;;;;8.80;6.70;;;0.10;99.90;;;1.05;100.00;99177.63;5051509;28;20557;-80
2021/04/15 01:48:22;;;;;;;18.10;7.43;;;0.20;99.90;;;1.09;100.00;99177.34;5050240;28;20465;-81
2021/04/15 01:50:56;;;;;;;9.13;6.87;;;0.30;99.90;;;1.04;100.00;99176.84;5049063;28;20464;-81
2021/04/15 01:53:32;;;;;;;8.47;7.20;;;0.10;99.90;;;0.93;100.00;99181.84;5047655;28;20491;-81
2021/04/15 01:56:13;;;;;;;8.80;6.47;;;0.00;99.90;;;0.87;100.00;99182.22;5047391;28;20511;-80
2021/04/15 01:58:49;;;;;;;8.83;6.70;;;0.00;99.90;;;0.92;100.00;99172.47;5046721;28;20518;-81
2021/04/15 02:01:23;;;;;;;14.83;7.20;;;0.00;99.90;;;0.75;100.00;99185.59;5051822;28;22266;-81
2021/04/15 02:04:02;;;;;;;11.10;7.00;;;-0.20;99.90;;;0.86;100.00;99180.59;5054619;28;20468;-81
2021/04/15 02:06:34;;;;;;;10.77;7.70;;;-0.10;99.90;;;0.89;100.00;99175.25;5045928;28;20619;-81
2021/04/15 02:09:08;;;;;;;15.30;7.07;;;0.00;99.90;;;0.78;100.00;99177.66;5044204;28;20473;-80
2021/04/15 02:11:42;;;;;;;10.50;6.73;;;-0.10;99.90;;;0.87;100.00;99179.66;5043632;28;20452;-81
2021/04/15 02:14:15;;;;;;;9.27;7.10;;;0.00;99.90;;;0.96;100.00;99184.22;5044407;28;20514;-81
2021/04/15 02:16:50;;;;;;;12.13;6.93;;;0.10;99.90;;;0.84;100.00;99180.66;5049119;28;20456;-80
2021/04/15 02:19:23;;;;;;;9.97;7.27;;;-0.10;99.90;;;0.76;100.00;99179.53;5048851;28;20457;-80
2021/04/15 02:22:07;;;;;;;10.80;6.40;;;-0.10;99.90;;;0.60;100.00;99174.50;5052469;28;21860;-81
2021/04/15 02:24:42;;;;;;;10.70;7.20;;;-0.30;99.90;;;0.72;100.00;99175.50;5053122;28;20465;-80
2021/04/15 02:27:25;;;;;;;9.80;7.83;;;-0.10;99.90;;;0.62;100.00;99175.25;5058356;28;20549;-80
2021/04/15 02:29:59;;;;;;;9.70;7.27;;;-0.30;99.90;;;0.73;100.00;99177.16;5044023;28;20502;-81
2021/04/15 02:32:33;;;;;;;8.60;6.73;;;-0.10;99.90;;;0.75;100.00;99178.69;5045207;28;21143;-81
2021/04/15 02:35:07;;;;;;;9.33;7.57;;;0.00;99.90;;;0.70;100.00;99177.31;5046313;28;20807;-81
2021/04/15 02:37:41;;;;;;;10.60;8.10;;;-0.20;99.90;;;0.66;100.00;99186.19;5052407;28;20459;-81
2021/04/15 02:40:18;;;;;;;9.87;7.57;;;-0.30;99.90;;;0.54;100.00;99185.19;5053585;28;20461;-81
2021/04/15 02:42:47;;;;;;;9.40;7.70;;;-0.40;99.90;;;0.62;100.00;99180.41;5049328;28;21052;-81
2021/04/15 02:45:26;;;;;;;8.90;7.23;;;-0.30;99.90;;;0.62;100.00;99180.41;5053375;28;20461;-81
2021/04/15 02:48:06;;;;;;;11.00;7.97;;;-0.30;99.90;;;0.52;100.00;99186.22;5053132;28;20459;-81
2021/04/15 02:50:35;;;;;;;10.87;8.17;;;-0.40;99.90;;;0.48;100.00;99172.72;5050735;28;20956;-80
2021/04/15 02:53:12;;;;;;;9.67;7.77;;;-0.50;99.90;;;0.52;100.00;99178.50;5050860;28;20457;-80
2021/04/15 02:55:50;;;;;;;10.60;7.90;;;-0.40;99.90;;;0.63;100.00;99183.78;5054597;28;20463;-81
2021/04/15 02:58:25;;;;;;;10.50;7.67;;;-0.30;99.90;;;0.57;100.00;99181.59;5054011;28;21156;-80
2021/04/15 03:00:56;;;;;;;11.17;8.43;;;-0.30;99.90;;;0.58;100.00;99180.69;5048327;28;20457;-80
2021/04/15 03:03:33;;;;;;;9.07;7.20;;;-0.40;99.90;;;0.43;100.00;99183.28;5053077;28;20461;-80
2021/04/15 03:06:10;;;;;;;12.20;7.90;;;-0.40;99.90;;;0.49;100.00;99180.31;5047417;28;20934;-80
2021/04/15 03:08:41;;;;;;;10.43;7.43;;;-0.40;99.90;;;0.50;100.00;99187.13;5057442;28;20467;-81
2021/04/15 03:11:16;;;;;;;11.67;7.80;;;-0.30;99.90;;;0.57;100.00;99186.75;5054553;28;20450;-80
2021/04/15 03:13:51;;;;;;;10.93;7.90;;;-0.30;99.90;;;0.47;100.00;99182.19;5050127;28;20956;-81
2021/04/15 03:16:23;;;;;;;14.17;7.63;;;-0.30;99.90;;;0.38;100.00;99180.16;5054637;28;20461;-80
2021/04/15 03:18:58;;;;;;;14.53;7.70;;;-0.50;99.90;;;0.48;100.00;99189.00;5053514;28;20481;-80
2021/04/15 03:21:33;;;;;;;12.03;8.60;;;-0.40;99.90;;;0.48;100.00;99186.41;5048675;28;20944;-83
2021/04/15 03:24:10;;;;;;;14.57;9.17;;;-0.40;99.90;;;0.47;100.00;99186.50;5051833;28;20509;-80
2021/04/15 03:26:48;;;;;;;15.17;9.10;;;-0.40;99.90;;;0.48;100.00;99189.00;5050883;28;20496;-80
2021/04/15 03:29:25;;;;;;;11.63;8.03;;;-0.40;99.90;;;0.49;100.00;99189.78;5053829;28;20467;-80
2021/04/15 03:32:12;;;;;;;14.83;8.37;;;-0.40;99.90;;;0.45;100.00;99194.31;5051497;28;20477;-80
2021/04/15 03:34:50;;;;;;;12.00;8.03;;;-0.40;99.90;;;0.51;100.00;99190.53;5057716;28;20456;-80
2021/04/15 03:37:24;;;;;;;10.37;7.90;;;-0.30;99.90;;;0.50;100.00;99196.59;5048379;28;20461;-81
2021/04/15 03:39:56;;;;;;;9.77;7.23;;;-0.30;99.90;;;0.40;100.00;99191.19;5043780;28;20462;-81
2021/04/15 03:42:33;;;;;;;15.03;9.57;;;-0.50;99.90;;;0.35;100.00;99189.81;5051027;28;20546;-88
2021/04/15 03:45:09;;;;;;;10.80;7.77;;;-0.60;99.90;;;0.25;100.00;99194.72;5053289;28;20468;-81
2021/04/15 03:47:44;;;;;;;12.47;8.80;;;-0.70;99.90;;;0.26;100.00;99193.81;5037179;28;20461;-81
2021/04/15 03:50:21;;;;;;;11.90;7.90;;;-0.70;99.90;;;0.22;100.00;99192.34;5047492;28;20837;-86
2021/04/15 03:52:57;;;;;;;11.63;7.63;;;-0.70;99.90;;;0.24;100.00;99195.66;5045139;28;21016;-81
2021/04/15 03:55:31;;;;;;;11.23;8.07;;;-0.70;99.90;;;0.30;100.00;99195.25;5046308;28;20460;-80
2021/04/15 03:58:06;;;;;;;11.40;8.27;;;-0.60;99.90;;;0.14;100.00;99198.88;5043665;28;20462;-80
2021/04/15 04:00:42;;;;;;;10.70;7.80;;;-0.80;99.90;;;0.12;100.00;99196.38;5053952;28;20464;-80
2021/04/15 04:03:16;;;;;;;11.77;8.53;;;-0.80;99.90;;;0.17;100.00;99198.69;5051374;28;20462;-81
2021/04/15 04:05:51;;;;;;;12.57;8.90;;;-0.80;99.90;;;0.21;100.00;99198.38;5047919;28;20479;-80
2021/04/15 04:08:32;;;;;;;13.97;8.87;;;-0.60;99.90;;;0.18;100.00;99195.19;5045971;28;20465;-81
2021/04/15 04:11:00;;;;;;;11.07;8.03;;;-0.70;99.90;;;0.12;100.00;99200.69;5045591;28;20457;-81
2021/04/15 04:13:34;;;;;;;15.77;9.97;;;-0.80;99.90;;;0.04;100.00;99201.16;5046264;28;21112;-80
2021/04/15 04:16:09;;;;;;;13.90;9.67;;;-0.90;99.90;;;0.08;100.00;99197.47;5047664;28;20505;-81
2021/04/15 04:18:49;;;;;;;13.20;9.60;;;-0.80;99.90;;;0.06;100.00;99201.06;5040938;28;20471;-81
2021/04/15 04:21:25;;;;;;;14.30;8.27;;;-0.80;99.90;;;-0.04;100.00;99198.25;5045438;28;20469;-80
2021/04/15 04:24:04;;;;;;;16.20;9.23;;;-1.00;99.90;;;0.03;100.00;99196.13;5051642;28;20599;-80
2021/04/15 04:26:37;;;;;;;13.40;8.73;;;-0.80;99.90;;;0.06;100.00;99201.06;5055092;28;20495;-81
2021/04/15 04:29:30;;;;;;;16.37;9.33;;;-0.80;99.90;;;0.05;100.00;99200.25;5049170;28;20994;-81
2021/04/15 04:32:03;;;;;;;15.40;9.70;;;-0.80;99.90;;;0.08;100.00;99199.22;5039640;28;20940;-80
2021/04/15 04:34:34;;;;;;;13.33;9.17;;;-0.80;99.90;;;0.16;100.00;99197.03;5052467;28;20443;-80
2021/04/15 04:37:05;;;;;;;11.90;8.63;;;-0.80;99.90;;;0.08;100.00;99197.47;5047180;28;20455;-80
2021/04/15 04:39:34;;;;;;;12.83;8.70;;;-0.80;99.90;;;0.04;100.00;99203.72;5045953;28;20907;-81
2021/04/15 04:42:20;;;;;;;16.10;9.67;;;-0.90;99.90;;;-0.08;100.00;99210.44;5040056;28;20484;-81
2021/04/15 04:44:53;;;;;;;13.70;9.60;;;-1.00;99.90;;;-0.07;100.00;99201.81;5044260;28;20494;-81
2021/04/15 04:47:37;;;;;;;14.93;9.27;;;-0.90;99.90;;;0.01;100.00;99209.06;5045292;28;20500;-81
2021/04/15 04:50:13;;;;;;;14.20;9.03;;;-0.90;99.90;;;-0.06;100.00;99213.75;5054509;28;20976;-88
2021/04/15 04:52:42;;;;;;;13.30;9.57;;;-1.00;99.90;;;-0.14;100.00;99217.69;5044226;28;20511;-80
2021/04/15 04:55:24;;;;;;;15.37;9.67;;;-1.10;99.90;;;-0.08;100.00;99215.59;5046067;28;20461;-81
2021/04/15 04:57:52;;;;;;;13.40;9.30;;;-0.90;99.90;;;-0.05;100.00;99224.84;5041071;28;20446;-81
2021/04/15 05:00:24;;;;;;;15.73;10.00;;;-0.90;99.90;;;-0.07;100.00;99217.22;5048989;28;20506;-81
2021/04/15 05:02:54;;;;;;;12.60;9.73;;;-0.90;99.90;;;-0.06;100.00;99228.34;5048103;28;20707;-80
2021/04/15 05:05:27;;;;;;;13.00;8.93;;;-0.90;99.90;;;-0.06;100.00;99224.03;5045173;28;20472;-81
2021/04/15 05:08:05;;;;;;;11.33;7.90;;;-1.00;99.90;;;0.04;100.00;99226.03;5050509;28;20440;-80
2021/04/15 05:10:34;;;;;;;11.40;9.10;;;-0.80;99.90;;;-0.05;100.00;99224.84;5044147;28;20511;-80
2021/04/15 05:13:14;;;;;;;13.10;9.27;;;-1.00;99.90;;;-0.03;100.00;99230.72;5046038;28;20460;-80
2021/04/15 05:15:43;;;;;;;15.93;9.17;;;-1.00;99.90;;;-0.03;100.00;99228.97;5047574;28;20536;-81
2021/04/15 05:18:16;;;;;;;13.30;9.10;;;-0.90;99.90;;;-0.02;100.00;99232.38;5047750;28;20444;-82
2021/04/15 05:20:45;;;;;;;16.30;9.70;;;-0.90;99.90;;;-0.15;100.00;99234.03;5049544;28;20442;-80
2021/04/15 05:23:21;;;;;;;12.70;9.47;;;-1.10;99.90;;;-0.08;100.00;99236.16;5048915;28;20448;-81
2021/04/15 05:26:09;;;;;;;15.90;9.37;;;-1.00;99.90;;;0.00;100.00;99233.94;5049666;28;20487;-81
2021/04/15 05:28:41;;;;;;;13.10;8.30;;;-0.90;99.90;;;0.07;100.00;99234.38;5052269;28;20878;-80
2021/04/15 05:31:12;;;;;;;11.63;8.30;;;-0.80;99.90;;;0.05;100.00;99231.09;5045096;28;20445;-80
2021/04/15 05:33:41;;;;;;;13.80;9.53;;;-0.80;99.90;;;0.07;100.00;99233.59;5052305;28;20841;-81
2021/04/15 05:36:19;;;;;;;12.90;8.90;;;-0.70;99.90;;;0.12;100.00;99239.25;5046763;28;21000;-80
2021/04/15 05:38:54;;;;;;;12.63;9.00;;;-0.80;99.90;;;0.13;100.00;99239.19;5049106;28;20461;-80
2021/04/15 05:41:29;;;;;;;18.47;10.13;;;-0.70;99.90;;;0.21;100.00;99244.66;5040965;28;20515;-80
2021/04/15 05:44:02;;;;;;;14.20;9.60;;;-0.70;99.90;;;0.20;100.00;99249.91;5056423;28;20465;-90
2021/04/15 05:46:40;;;;;;;13.97;9.73;;;-0.70;99.90;;;0.26;100.00;99239.25;5045423;28;20485;-80
2021/04/15 05:49:16;;;;;;;14.00;8.40;;;-0.60;99.90;;;0.35;100.00;99244.66;5045564;28;20439;-80
2021/04/15 05:51:49;;;;;;;13.00;8.93;;;-0.50;99.90;;;0.30;100.00;99243.31;5045923;28;20831;-80
2021/04/15 05:54:21;;;;;;;14.27;9.27;;;-0.60;99.90;;;0.34;100.00;99247.34;5044795;28;20526;-80
2021/04/15 05:57:02;;;;;;;14.53;10.03;;;-0.50;99.90;;;0.44;100.00;99243.28;5040506;28;20468;-89
2021/04/15 05:59:47;;;;;;;13.20;9.00;;;-0.40;99.90;;;0.58;100.00;99243.25;5047611;28;20453;-79
2021/04/15 06:02:52;;;;;;;13.17;9.50;;;-0.20;99.90;;;0.69;100.00;99240.03;5047223;28;20445;-80
2021/04/15 06:05:29;;;;;;;13.20;9.30;;;-0.20;99.90;;;0.76;100.00;99242.13;5043025;28;20463;-79
2021/04/15 06:08:04;;;;;;;18.03;10.00;;;-0.10;99.90;;;0.85;100.00;99238.97;5047499;28;20446;-79
2021/04/15 06:10:39;;;;;;;15.70;10.10;;;0.00;99.90;;;0.97;100.00;99245.09;5058406;28;20470;-79
2021/04/15 06:13:16;;;;;;;17.40;9.00;;;0.10;99.90;;;1.02;100.00;99243.03;5045921;28;20957;-79
2021/04/15 06:15:57;;;;;;;13.27;9.33;;;0.20;99.90;;;1.06;100.00;99246.25;5059288;28;20436;-79
2021/04/15 06:18:33;;;;;;;13.77;9.13;;;0.20;99.90;;;1.11;100.00;99250.16;5056798;28;20486;-79
2021/04/15 06:21:07;;;;;;;14.80;9.57;;;0.30;99.90;;;1.16;100.00;99240.41;5050122;28;20465;-79
2021/04/15 06:23:43;;;;;;;15.07;9.40;;;0.40;99.90;;;1.18;100.00;99246.28;5052675;28;20552;-79
2021/04/15 06:26:28;;;;;;;15.00;8.97;;;0.30;99.90;;;1.25;100.00;99239.00;5042836;28;20547;-79
2021/04/15 06:29:02;;;;;;;19.47;9.47;;;0.40;99.90;;;1.33;100.00;99242.72;5050118;28;20508;-79
2021/04/15 06:31:36;;;;;;;14.83;10.10;;;0.50;99.90;;;1.44;100.00;99252.34;5049488;28;20946;-79
2021/04/15 06:34:06;;;;;;;16.13;9.70;;;0.60;99.90;;;1.56;100.00;99240.41;5053631;28;20436;-79
2021/04/15 06:36:41;;;;;;;13.30;9.07;;;0.70;99.90;;;1.68;100.00;99244.72;5053929;28;20459;-79
2021/04/15 06:39:21;;;;;;;14.40;9.83;;;1.00;99.90;;;1.73;100.00;99242.69;5054562;28;20441;-79
2021/04/15 06:42:27;;;;;;;16.93;9.30;;;1.00;99.90;;;1.78;100.00;99243.19;5053838;28;20496;-79
2021/04/15 06:45:57;;;;;;;15.33;9.50;;;0.90;99.90;;;1.91;100.00;99244.00;5052938;28;20441;-79
2021/04/15 06:49:03;;;;;;;13.03;8.07;;;1.20;99.90;;;2.02;100.00;99244.97;4973774;28;20444;-79
2021/04/15 06:51:48;;;;;;;12.80;8.33;;;1.30;99.90;;;2.12;100.00;99247.72;4972181;28;20445;-79
2021/04/15 06:54:41;;;;;;;13.77;8.43;;;1.40;99.90;;;2.22;100.00;99251.31;5045987;28;20535;-79
2021/04/15 06:57:35;;;;;;;11.50;8.20;;;1.50;99.90;;;2.28;100.00;99240.59;5054680;28;20937;-79
2021/04/15 07:00:25;;;;;;;9.60;7.20;;;1.60;99.90;;;2.37;100.00;99236.56;5048876;28;20440;-79
2021/04/15 07:03:09;;;;;;;8.93;7.30;;;1.70;99.90;;;2.44;100.00;99236.03;5046561;28;20445;-79
2021/04/15 07:05:48;;;;;;;11.27;7.10;;;1.90;99.90;;;2.52;100.00;99238.91;5051216;28;20441;-79
2021/04/15 07:08:43;;;;;;;8.20;5.63;;;1.90;99.90;;;2.61;100.00;99232.25;5057215;28;20440;-79
2021/04/15 07:11:33;;;;;;;9.73;6.57;;;2.00;99.90;;;2.69;100.00;99234.31;5048296;28;20559;-79
2021/04/15 07:15:04;;;;;;;7.30;6.10;;;2.10;99.90;;;2.78;100.00;99238.81;5055651;28;20545;-79
2021/04/15 07:18:02;;;;;;;8.07;5.67;;;2.20;99.90;;;2.85;100.00;99240.03;4983837;28;20975;-79
2021/04/15 07:21:11;;;;;;;6.97;5.50;;;2.20;99.90;;;2.94;100.00;99237.63;4993627;28;20475;-79
2021/04/15 07:24:37;;;;;;;9.33;6.17;;;2.30;99.90;;;3.00;100.00;99228.63;5051862;28;20437;-80
2021/04/15 07:28:18;;;;;;;7.17;5.60;;;2.30;99.90;;;3.08;100.00;99239.22;5015948;28;20494;-79
2021/04/15 07:31:33;;;;;;;9.47;6.43;;;2.50;99.90;;;3.14;100.00;99235.38;4996990;28;20447;-80
2021/04/15 07:34:40;;;;;;;7.53;5.67;;;2.40;99.90;;;3.21;100.00;99229.66;5011920;28;20447;-80
2021/04/15 07:37:44;;;;;;;13.67;6.30;;;2.60;99.90;;;3.29;100.00;99232.50;5046320;28;20921;-80
2021/04/15 07:40:53;;;;;;;8.00;4.73;;;2.70;99.90;;;3.35;100.00;99238.97;5055960;28;20448;-79
2021/04/15 07:44:05;;;;;;;9.07;5.10;;;2.70;99.90;;;3.42;100.00;99235.84;5055945;28;20449;-80
2021/04/15 07:46:45;;;;;;;7.47;5.20;;;2.80;99.90;;;3.49;100.00;99231.88;5049648;28;20484;-80
2021/04/15 07:50:04;;;;;;;4.90;4.20;;;2.90;99.90;;;3.58;100.00;99234.69;5048103;28;20569;-80
2021/04/15 07:53:36;;;;;;;7.20;5.00;;;3.00;99.90;;;3.61;100.00;99230.13;5052881;28;20453;-80
2021/04/15 07:56:51;;;;;;;8.70;5.10;;;3.00;99.90;;;3.63;100.00;99232.59;5043777;28;20441;-78
2021/04/15 07:59:45;;;;;;;10.40;4.97;;;3.00;99.90;;;3.66;100.00;99228.03;5049834;28;20441;-80
2021/04/15 08:02:52;;;;;;;8.20;5.37;;;3.00;99.90;;;3.73;100.00;99233.56;5050073;28;20942;-80
2021/04/15 08:06:06;;;;;;;5.37;4.70;;;3.10;99.90;;;3.79;100.00;99233.91;5056829;28;20461;-80
2021/04/15 08:09:24;;;;;;;8.07;5.67;;;3.10;99.90;;;3.88;100.00;99235.00;5041169;28;20480;-79
2021/04/15 08:12:14;;;;;;;10.47;5.60;;;3.30;99.90;;;3.96;100.00;99238.66;5004142;28;20437;-80
2021/04/15 08:15:23;;;;;;;9.20;5.23;;;3.40;99.90;;;4.08;100.00;99239.50;5050338;28;20452;-80
2021/04/15 08:18:28;;;;;;;6.37;5.57;;;3.40;99.90;;;4.17;100.00;99243.13;5037028;28;20449;-80
2021/04/15 08:21:30;;;;;;;6.60;5.17;;;3.50;99.90;;;4.24;100.00;99245.13;5052418;28;20438;-80
2021/04/15 08:24:33;;;;;;;7.27;4.77;;;3.60;99.90;;;4.35;100.00;99232.19;5050310;28;20495;-80
2021/04/15 08:27:43;;;;;;;7.10;5.53;;;3.70;99.90;;;4.43;100.00;99237.63;5051960;28;20586;-80
2021/04/15 08:30:35;;;;;;;8.00;5.20;;;3.80;99.90;;;4.52;100.00;99247.25;5049787;28;20951;-80
2021/04/15 08:33:36;;;;;;;6.00;4.97;;;3.90;99.90;;;4.58;100.00;99244.16;5046405;28;20465;-79
2021/04/15 08:36:35;;;;;;;6.00;4.87;;;4.00;99.90;;;4.64;100.00;99247.25;5047014;28;20440;-80
2021/04/15 08:39:33;;;;;;;7.70;5.03;;;4.00;99.90;;;4.70;100.00;99246.75;5051113;28;21143;-79
2021/04/15 08:42:37;;;;;;;5.33;4.00;;;4.10;99.90;;;4.76;100.00;99252.28;5049160;28;21081;-80
2021/04/15 08:45:40;;;;;;;7.93;4.33;;;4.20;99.90;;;4.80;100.00;99250.28;5043113;28;20456;-80
2021/04/15 08:48:38;;;;;;;5.63;4.17;;;4.10;99.90;;;4.83;99.78;99245.66;5049410;28;20506;-79
2021/04/15 08:51:54;;;;;;;7.50;4.60;;;4.20;99.90;;;4.87;98.71;99243.66;5046362;28;20958;-80
2021/04/15 08:55:13;;;;;;;5.30;4.00;;;4.20;99.90;;;4.87;98.28;99247.06;5027839;28;20518;-80
2021/04/15 08:58:06;;;;;;;4.70;3.70;;;4.20;99.90;;;4.90;98.01;99248.59;5012297;28;20461;-80
2021/04/15 09:00:43;;;;;;;4.23;3.83;;;4.20;99.90;;;4.92;96.99;99239.78;5046350;28;20452;-80
2021/04/15 09:03:26;;;;;;;5.07;3.50;;;4.30;99.90;;;4.94;95.60;99237.03;5051512;28;20441;-79
2021/04/15 09:06:18;;;;;;;5.40;3.87;;;4.30;99.90;;;5.04;94.53;99241.38;5056567;28;20436;-80
2021/04/15 09:09:12;;;;;;;4.13;3.23;;;4.50;99.90;;;5.07;91.90;99246.31;5055487;28;20449;-80
2021/04/15 09:11:50;;;;;;;6.63;3.40;;;4.50;99.90;;;5.14;91.45;99235.47;5054012;28;20452;-80
2021/04/15 09:14:36;;;;;;;6.10;3.40;;;4.60;99.90;;;5.23;90.96;99234.72;5051749;28;20847;-80
2021/04/15 09:17:10;;;;;;;5.00;2.70;;;4.60;99.90;;;5.33;88.79;99233.03;5046783;28;20891;-80
2021/04/15 09:19:57;;;;;;;4.03;2.83;;;4.80;99.70;;;5.43;88.78;99229.56;5049105;28;20531;-80
2021/04/15 09:23:13;;;;;;;5.63;3.30;;;4.90;99.70;;;5.53;88.45;99230.44;5050971;28;20952;-80
2021/04/15 09:25:52;;;;;;;5.00;2.40;;;5.00;99.40;;;5.60;86.45;99235.94;5050798;28;20458;-80
2021/04/15 09:28:32;;;;;;;20.13;2.70;;;5.00;98.10;;;5.64;85.43;99228.75;5050731;28;20925;-79
2021/04/15 09:31:17;;;;;;;3.83;2.33;;;5.10;98.00;;;5.65;82.62;99220.84;5053844;28;20445;-80
2021/04/15 09:34:42;;;;;;;2.70;2.00;;;5.00;97.10;;;5.73;81.40;99233.16;5050769;28;20447;-80
2021/04/15 09:37:42;;;;;;;3.87;2.13;;;5.10;97.20;;;5.73;78.16;99223.59;5033089;28;20468;-80
2021/04/15 09:40:20;;;;;;;3.37;2.00;;;5.10;96.10;;;5.79;77.78;99217.09;5050506;28;20832;-80
2021/04/15 09:43:21;;;;;;;2.30;1.90;;;5.20;96.00;;;5.86;76.03;99215.66;5052998;28;20469;-79
2021/04/15 09:46:13;;;;;;;2.00;1.80;;;5.30;95.40;;;5.92;75.28;99222.94;5049710;28;20441;-80
2021/04/15 09:49:19;;;;;;;3.40;1.87;;;5.30;95.30;;;5.99;74.95;99208.50;5048902;28;20856;-80
2021/04/15 09:52:31;;;;;;;8.20;2.70;;;5.40;95.50;;;6.04;75.19;99214.09;5048566;28;20511;-80
2021/04/15 09:55:29;;;;;;;5.27;2.30;;;5.40;95.30;;;6.08;74.85;99212.91;5015673;28;20855;-80
2021/04/15 09:58:16;;;;;;;3.17;2.10;;;5.50;95.30;;;6.12;75.15;99211.69;5053346;28;20450;-80
2021/04/15 10:00:49;;;;;;;4.13;2.30;;;5.50;95.10;;;6.16;74.33;99204.47;5054603;28;20444;-80
2021/04/15 10:03:33;;;;;;;3.33;2.27;;;5.60;95.00;;;6.17;74.35;99204.34;5054420;28;20454;-80
2021/04/15 10:06:17;;;;;;;3.70;1.83;;;5.50;94.80;;;6.15;70.98;99198.44;5054334;28;20448;-80
2021/04/15 10:09:35;;;;;;;2.90;1.70;;;5.50;94.00;;;6.18;70.76;99198.19;5058576;28;20457;-80
2021/04/15 10:12:47;;;;;;;2.93;1.50;;;5.50;94.20;;;6.26;68.67;99200.13;5050381;28;20445;-80
2021/04/15 10:15:43;;;;;;;1.90;1.67;;;5.60;93.30;;;6.26;65.86;99194.94;5057988;28;20850;-80
2021/04/15 10:18:43;;;;;;;1.43;1.33;;;5.50;92.80;;;6.38;65.48;99205.13;5052506;28;20477;-80
2021/04/15 10:21:35;;;;;;;1.80;1.70;;;5.70;92.70;;;6.37;63.27;99192.25;5052386;28;20469;-80
2021/04/15 10:24:24;;;;;;;1.63;1.53;;;5.70;92.10;;;6.45;64.72;99185.44;5047020;28;20445;-80
2021/04/15 10:27:52;;;;;;;2.37;1.80;;;5.80;92.50;;;6.54;64.91;99189.00;5045513;28;21028;-80
2021/04/15 10:31:02;;;;;;;4.07;1.70;;;5.90;92.50;;;6.60;64.14;99183.28;5050806;28;20518;-79
2021/04/15 10:34:07;;;;;;;2.23;1.80;;;5.90;92.50;;;6.67;63.95;99180.94;5051185;28;20444;-80
2021/04/15 10:36:56;;;;;;;3.53;2.00;;;6.10;92.10;;;6.71;64.16;99177.13;5050840;28;20464;-80
2021/04/15 10:40:26;;;;;;;3.03;2.10;;;6.10;92.50;;;6.78;64.42;99176.47;5056202;28;20436;-80
2021/04/15 10:43:47;;;;;;;4.90;1.73;;;6.10;92.50;;;6.89;65.34;99171.16;5054076;28;20459;-80
2021/04/15 10:46:42;;;;;;;2.67;1.90;;;6.30;92.70;;;6.92;63.92;99180.44;4997848;28;20456;-80
2021/04/15 10:49:31;;;;;;;2.00;1.80;;;6.30;92.10;;;6.86;60.68;99183.59;5053195;28;20804;-80
2021/04/15 10:52:06;;;;;;;2.43;1.63;;;6.20;91.10;;;6.88;60.57;99166.06;5054465;28;20534;-80
2021/04/15 10:54:39;;;;;;;2.40;1.70;;;6.30;91.10;;;6.95;61.13;99164.56;5056151;28;20456;-80
2021/04/15 10:57:19;;;;;;;3.70;2.00;;;6.30;91.20;;;7.07;61.88;99163.50;5059524;28;20939;-80
2021/04/15 10:59:49;;;;;;;4.67;1.90;;;6.50;91.50;;;7.19;60.90;99158.94;5056497;28;20483;-80
2021/04/15 11:02:33;;;;;;;3.97;1.87;;;6.50;91.00;;;7.24;60.36;99156.78;5056999;28;20468;-80
2021/04/15 11:05:28;;;;;;;2.53;1.70;;;6.60;90.70;;;7.29;59.15;99157.97;5053587;28;20445;-80
2021/04/15 11:08:06;;;;;;;2.47;1.70;;;6.70;90.20;;;7.36;59.09;99168.66;5052922;28;21035;-80
2021/04/15 11:10:36;;;;;;;1.97;1.70;;;6.70;90.40;;;7.42;57.90;99155.94;5055603;28;20463;-80
2021/04/15 11:13:22;;;;;;;3.60;2.07;;;6.90;89.60;;;7.46;57.46;99162.47;5059056;28;20548;-80
2021/04/15 11:15:54;;;;;;;3.03;2.03;;;6.80;89.80;;;7.49;56.28;99140.56;5054143;28;20459;-80
2021/04/15 11:18:30;;;;;;;2.53;1.60;;;6.80;88.20;;;7.53;55.86;99152.34;5055733;28;20436;-80
2021/04/15 11:21:27;;;;;;;2.07;1.63;;;7.00;88.20;;;7.56;56.29;99152.06;5055358;28;20432;-80
2021/04/15 11:24:17;;;;;;;3.23;1.50;;;6.90;88.20;;;7.63;55.13;99149.72;5052925;28;20532;-81
2021/04/15 11:26:50;;;;;;;2.37;1.80;;;7.00;87.30;;;7.53;53.79;99141.94;5052795;28;20491;-80
2021/04/15 11:29:24;;;;;;;6.13;2.20;;;7.00;85.80;;;7.56;53.47;99147.69;5055201;28;20441;-80
2021/04/15 11:31:56;;;;;;;2.23;1.70;;;7.00;85.70;;;7.57;53.84;99133.69;5054002;28;20456;-81